Terminal Aerodrome Forecast
Issued by NWS

Current Version | Previous Version | Text Only | Print | Product List | Glossary On
Versions: 1 2 3 4 5 6 7 8 9 10 11 12 13 14
000
FTPA31 PHFO 242336
TAFHJH
TAF
PHJH 242336Z 2500/2524 14010G18KT 6SM -SHRA SCT015 BKN035
     FM250600 14010G18KT P6SM VCSH SCT015 BKN035
     FM252000 14010G18KT P6SM SCT015 BKN045
      AMD NOT SKED AFT 250400=

USA.gov is the U.S. government's official web portal to all federal, state and local government web resources and services.